Time,TemperatureF,DewpointF,PressureIn,WindDirection,WindDirectionDegrees,WindSpeedMPH,WindSpeedGustMPH,Humidity,HourlyPrecipIn,Conditions,Clouds,dailyrainin,SoftwareType,DateUTC
2013-04-07 00:02:00,36.5,33.6,31.18,South,188,0.0,0.0,89,0.00,,---,0.03,VWS V14.01,2013-04-07 07:02:00,
2013-04-07 00:07:00,36.5,33.6,31.18,SSW,204,0.0,0.0,89,0.00,,---,0.00,VWS V14.01,2013-04-07 07:07:00,
2013-04-07 00:13:00,36.5,33.8,31.18,SSW,195,0.0,0.0,90,0.00,,---,0.00,VWS V14.01,2013-04-07 07:13:00,
2013-04-07 00:18:00,36.6,34.0,31.18,South,182,0.0,0.0,90,0.00,,---,0.00,VWS V14.01,2013-04-07 07:18:00,
2013-04-07 00:23:00,36.6,34.0,31.18,SSW,200,0.0,0.0,90,0.00,,---,0.00,VWS V14.01,2013-04-07 07:23:00,
2013-04-07 00:28:00,36.8,34.2,31.18,SSE,153,0.0,0.0,90,0.00,,---,0.00,VWS V14.01,2013-04-07 07:28:00,
2013-04-07 00:33:00,36.8,33.9,31.18,South,186,0.0,0.0,89,0.00,,---,0.00,VWS V14.01,2013-04-07 07:33:00,
2013-04-07 00:38:00,36.8,33.9,31.18,South,184,0.0,0.0,89,0.00,,---,0.00,VWS V14.01,2013-04-07 07:38:00,
2013-04-07 00:43:00,36.6,33.7,31.18,SSW,206,0.0,0.0,89,0.00,,---,0.00,VWS V14.01,2013-04-07 07:43:00,
2013-04-07 00:48:00,36.6,33.7,31.18,SW,225,0.0,0.0,89,0.00,,---,0.00,VWS V14.01,2013-04-07 07:48:00,
2013-04-07 00:53:00,36.6,33.7,31.18,SW,225,0.0,0.0,89,0.01,,---,0.01,VWS V14.01,2013-04-07 07:53:00,
2013-04-07 00:58:00,36.8,33.9,31.18,SW,217,0.0,0.0,89,0.01,,---,0.01,VWS V14.01,2013-04-07 07:58:00,
2013-04-07 01:04:00,36.6,33.4,31.18,SW,229,0.0,0.0,88,0.01,,---,0.01,VWS V14.01,2013-04-07 08:04:00,
2013-04-07 01:09:00,36.6,33.4,31.18,SSW,202,0.0,0.0,88,0.01,,---,0.01,VWS V14.01,2013-04-07 08:09:00,
2013-04-07 01:14:00,36.6,33.4,31.18,SW,225,0.0,0.0,88,0.01,,---,0.01,VWS V14.01,2013-04-07 08:14:00,
2013-04-07 01:19:00,36.8,33.6,31.18,SW,223,0.0,0.0,88,0.01,,---,0.01,VWS V14.01,2013-04-07 08:19:00,
2013-04-07 01:24:00,36.8,33.6,31.18,SSW,192,0.0,0.0,88,0.01,,---,0.01,VWS V14.01,2013-04-07 08:24:00,
2013-04-07 01:29:00,36.8,33.6,31.18,South,171,0.0,0.0,88,0.01,,---,0.01,VWS V14.01,2013-04-07 08:29:00,
2013-04-07 01:35:00,36.8,33.6,31.18,SSW,213,0.0,0.0,88,0.01,,---,0.01,VWS V14.01,2013-04-07 08:35:00,
2013-04-07 01:40:00,37.0,33.8,31.18,SSW,202,0.0,0.0,88,0.01,,---,0.01,VWS V14.01,2013-04-07 08:40:00,
2013-04-07 01:45:00,37.0,33.8,31.18,SSW,200,0.0,0.0,88,0.01,,---,0.01,VWS V14.01,2013-04-07 08:45:00,
2013-04-07 01:50:00,37.2,34.0,31.18,South,186,0.0,0.0,88,0.01,,---,0.01,VWS V14.01,2013-04-07 08:50:00,
2013-04-07 01:55:00,37.5,34.3,31.18,South,180,0.0,0.0,88,0.00,,---,0.01,VWS V14.01,2013-04-07 08:55:00,
2013-04-07 02:00:00,37.5,34.0,31.18,SSW,199,0.0,0.0,87,0.00,,---,0.01,VWS V14.01,2013-04-07 09:00:00,
2013-04-07 02:05:00,37.5,34.0,31.18,SSW,208,0.0,0.0,87,0.00,,---,0.01,VWS V14.01,2013-04-07 09:05:00,
2013-04-07 02:10:00,37.5,34.0,31.20,South,180,0.0,0.0,87,0.00,,---,0.01,VWS V14.01,2013-04-07 09:10:00,
2013-04-07 02:15:00,37.3,34.1,31.20,South,173,0.0,0.0,88,0.00,,---,0.01,VWS V14.01,2013-04-07 09:15:00,
2013-04-07 02:20:00,37.2,34.0,31.20,SW,215,0.0,0.0,88,0.00,,---,0.01,VWS V14.01,2013-04-07 09:20:00,
2013-04-07 02:25:00,37.0,33.8,31.20,SSW,196,0.0,0.0,88,0.00,,---,0.01,VWS V14.01,2013-04-07 09:25:00,
2013-04-07 02:31:00,37.0,34.1,31.20,SSW,198,0.0,0.0,89,0.00,,---,0.01,VWS V14.01,2013-04-07 09:31:00,
2013-04-07 02:36:00,36.9,34.0,31.20,SSW,208,0.0,0.0,89,0.00,,---,0.01,VWS V14.01,2013-04-07 09:36:00,
2013-04-07 02:41:00,36.8,33.9,31.20,SSW,202,0.0,0.0,89,0.00,,---,0.01,VWS V14.01,2013-04-07 09:41:00,
2013-04-07 02:47:00,36.8,33.9,31.20,SSW,205,0.0,0.0,89,0.00,,---,0.01,VWS V14.01,2013-04-07 09:47:00,
2013-04-07 02:52:00,36.8,33.9,31.20,SSE,155,0.0,0.0,89,0.00,,---,0.01,VWS V14.01,2013-04-07 09:52:00,
2013-04-07 02:57:00,36.9,34.0,31.20,South,180,0.0,0.0,89,0.00,,---,0.01,VWS V14.01,2013-04-07 09:57:00,
2013-04-07 03:02:00,36.9,34.0,31.20,SSE,150,0.0,0.0,89,0.00,,---,0.01,VWS V14.01,2013-04-07 10:02:00,
2013-04-07 03:07:00,37.0,33.8,31.19,SSE,162,0.0,0.0,88,0.00,,---,0.01,VWS V14.01,2013-04-07 10:07:00,
2013-04-07 03:12:00,37.2,34.0,31.19,SE,137,0.0,0.0,88,0.00,,---,0.01,VWS V14.01,2013-04-07 10:12:00,
2013-04-07 03:18:00,37.5,34.6,31.19,South,171,0.0,0.0,89,0.00,,---,0.01,VWS V14.01,2013-04-07 10:18:00,
2013-04-07 03:23:00,37.8,34.6,31.19,SSE,156,0.0,0.0,88,0.00,,---,0.01,VWS V14.01,2013-04-07 10:23:00,
2013-04-07 03:28:00,38.0,34.5,31.19,SSE,157,0.0,0.0,87,0.00,,---,0.01,VWS V14.01,2013-04-07 10:28:00,
2013-04-07 03:33:00,38.2,34.7,31.19,SSE,150,0.0,0.0,87,0.00,,---,0.01,VWS V14.01,2013-04-07 10:33:00,
2013-04-07 03:38:00,38.2,34.7,31.19,South,173,0.0,0.0,87,0.00,,---,0.01,VWS V14.01,2013-04-07 10:38:00,
2013-04-07 03:43:00,38.2,34.7,31.19,South,171,0.0,0.0,87,0.00,,---,0.01,VWS V14.01,2013-04-07 10:43:00,
2013-04-07 03:48:00,38.3,34.8,20.79,SE,143,0.0,0.0,87,0.00,,---,0.01,VWS V14.01,2013-04-07 10:48:00,
2013-04-07 03:53:00,38.3,35.1,31.19,SW,215,0.0,0.0,88,0.00,,---,0.01,VWS V14.01,2013-04-07 10:53:00,
2013-04-07 03:58:00,38.5,35.3,31.20,SSW,202,0.0,0.0,88,0.00,,---,0.01,VWS V14.01,2013-04-07 10:58:00,
2013-04-07 04:03:00,38.5,35.3,31.20,SSW,196,0.0,0.0,88,0.00,,---,0.01,VWS V14.01,2013-04-07 11:03:00,
2013-04-07 04:09:00,38.5,35.3,31.19,East,88,0.0,0.0,88,0.00,,---,0.01,VWS V14.01,2013-04-07 11:09:00,
2013-04-07 04:14:00,38.5,35.3,31.19,South,189,0.0,0.0,88,0.00,,---,0.01,VWS V14.01,2013-04-07 11:14:00,
2013-04-07 04:19:00,38.6,35.1,31.19,SW,236,0.0,0.0,87,0.00,,---,0.01,VWS V14.01,2013-04-07 11:19:00,
2013-04-07 04:24:00,38.8,35.3,31.19,WSW,255,0.0,0.0,87,0.01,,---,0.02,VWS V14.01,2013-04-07 11:24:00,
2013-04-07 04:29:00,38.8,34.7,31.19,SSW,204,0.0,0.0,85,0.01,,---,0.02,VWS V14.01,2013-04-07 11:29:00,
2013-04-07 04:34:00,38.6,34.2,31.19,South,180,0.0,0.0,84,0.01,,---,0.02,VWS V14.01,2013-04-07 11:34:00,
2013-04-07 04:39:00,38.3,33.9,31.18,SSW,194,0.0,0.0,84,0.01,,---,0.02,VWS V14.01,2013-04-07 11:39:00,
2013-04-07 04:44:00,38.3,33.6,31.18,SW,223,0.0,0.0,83,0.01,,---,0.02,VWS V14.01,2013-04-07 11:44:00,
2013-04-07 04:49:00,38.5,33.5,31.19,WSW,237,0.0,0.0,82,0.01,,---,0.02,VWS V14.01,2013-04-07 11:49:00,
2013-04-07 04:54:00,38.6,33.6,31.19,SW,221,0.0,0.0,82,0.01,,---,0.02,VWS V14.01,2013-04-07 11:54:00,
2013-04-07 05:00:00,38.8,33.8,31.19,SW,221,0.0,0.0,82,0.01,,---,0.02,VWS V14.01,2013-04-07 12:00:00,
2013-04-07 05:05:00,38.6,33.6,31.18,SSW,202,0.0,0.0,82,0.01,,---,0.02,VWS V14.01,2013-04-07 12:05:00,
2013-04-07 05:10:00,38.3,33.9,31.17,West,263,0.0,0.0,84,0.01,,---,0.02,VWS V14.01,2013-04-07 12:10:00,
2013-04-07 05:15:00,38.0,33.6,31.17,West,265,0.0,0.0,84,0.02,,---,0.03,VWS V14.01,2013-04-07 12:15:00,
2013-04-07 05:20:00,37.3,32.9,31.17,NNW,348,0.0,0.0,84,0.02,,---,0.03,VWS V14.01,2013-04-07 12:20:00,
2013-04-07 05:25:00,36.6,32.5,31.17,NE,55,0.0,0.0,85,0.01,,---,0.03,VWS V14.01,2013-04-07 12:25:00,
2013-04-07 05:31:00,36.2,32.4,31.16,South,188,0.0,0.0,86,0.01,,---,0.03,VWS V14.01,2013-04-07 12:31:00,
2013-04-07 05:36:00,36.2,32.4,31.16,South,184,0.0,0.0,86,0.01,,---,0.03,VWS V14.01,2013-04-07 12:36:00,
2013-04-07 05:41:00,36.3,32.2,31.16,SSW,195,0.0,0.0,85,0.01,,---,0.03,VWS V14.01,2013-04-07 12:41:00,
2013-04-07 05:46:00,36.6,31.6,31.17,SSW,211,0.0,0.0,82,0.01,,---,0.03,VWS V14.01,2013-04-07 12:46:00,
2013-04-07 05:51:00,36.8,31.5,31.17,SE,146,0.0,0.0,81,0.01,,---,0.03,VWS V14.01,2013-04-07 12:51:00,
2013-04-07 05:57:00,36.5,31.5,31.17,South,190,0.0,0.0,82,0.01,,---,0.03,VWS V14.01,2013-04-07 12:57:00,
2013-04-07 06:02:00,36.3,31.3,31.16,South,188,0.0,0.0,82,0.01,,---,0.03,VWS V14.01,2013-04-07 13:02:00,
2013-04-07 06:07:00,36.2,31.2,31.16,SSW,209,0.0,0.0,82,0.01,,---,0.03,VWS V14.01,2013-04-07 13:07:00,
2013-04-07 06:12:00,36.3,31.0,20.82,South,188,0.0,0.0,81,0.01,,---,0.03,VWS V14.01,2013-04-07 13:12:00,
2013-04-07 06:17:00,36.5,31.2,31.16,SW,225,0.0,0.0,81,0.00,,---,0.03,VWS V14.01,2013-04-07 13:17:00,
2013-04-07 06:22:00,36.5,31.5,31.16,SSW,196,0.0,0.0,82,0.00,,---,0.03,VWS V14.01,2013-04-07 13:22:00,
2013-04-07 06:27:00,36.2,31.2,31.15,SSW,201,0.0,0.0,82,0.00,,---,0.03,VWS V14.01,2013-04-07 13:27:00,
2013-04-07 06:32:00,36.2,31.5,31.15,SW,229,0.0,0.0,83,0.00,,---,0.03,VWS V14.01,2013-04-07 13:32:00,
2013-04-07 06:37:00,35.9,31.2,31.15,SW,215,0.0,0.0,83,0.00,,---,0.03,VWS V14.01,2013-04-07 13:37:00,
2013-04-07 06:43:00,35.9,31.2,31.15,SSW,193,0.0,0.0,83,0.00,,---,0.03,VWS V14.01,2013-04-07 13:43:00,
2013-04-07 06:48:00,35.9,31.2,31.15,SSW,213,0.0,0.0,83,0.00,,---,0.03,VWS V14.01,2013-04-07 13:48:00,
2013-04-07 06:53:00,35.6,31.2,31.15,SSW,205,0.0,0.0,84,0.00,,---,0.03,VWS V14.01,2013-04-07 13:53:00,
2013-04-07 06:58:00,35.5,31.5,31.15,SW,225,0.0,0.0,85,0.00,,---,0.03,VWS V14.01,2013-04-07 13:58:00,
2013-04-07 07:03:00,35.8,31.1,31.15,West,259,0.0,0.0,83,0.00,,---,0.03,VWS V14.01,2013-04-07 14:03:00,
2013-04-07 07:08:00,36.2,30.3,31.14,WSW,248,0.0,0.0,79,0.00,,---,0.03,VWS V14.01,2013-04-07 14:08:00,
2013-04-07 07:14:00,36.8,29.6,31.15,WSW,240,0.0,0.0,75,0.00,,---,0.03,VWS V14.01,2013-04-07 14:14:00,
2013-04-07 07:19:00,37.0,29.5,31.15,SW,234,0.0,0.0,74,0.00,,---,0.03,VWS V14.01,2013-04-07 14:19:00,
2013-04-07 07:24:00,37.3,28.8,31.15,SW,226,0.0,0.0,71,0.00,,---,0.03,VWS V14.01,2013-04-07 14:24:00,
2013-04-07 07:29:00,37.6,29.1,31.15,SW,236,0.0,0.0,71,0.00,,---,0.03,VWS V14.01,2013-04-07 14:29:00,
2013-04-07 07:34:00,37.8,28.9,31.15,SW,236,0.0,0.0,70,0.00,,---,0.03,VWS V14.01,2013-04-07 14:34:00,
2013-04-07 07:39:00,38.3,29.0,31.15,SW,224,0.0,0.0,69,0.00,,---,0.03,VWS V14.01,2013-04-07 14:39:00,
2013-04-07 07:44:00,37.6,30.1,31.15,West,263,0.0,0.0,74,0.00,,---,0.03,VWS V14.01,2013-04-07 14:44:00,
2013-04-07 07:50:00,36.6,30.1,31.15,WSW,242,0.0,0.0,77,0.00,,---,0.03,VWS V14.01,2013-04-07 14:50:00,
2013-04-07 07:55:00,36.5,30.3,31.15,WSW,250,0.0,0.0,78,0.00,,---,0.03,VWS V14.01,2013-04-07 14:55:00,
2013-04-07 08:00:00,36.6,30.4,31.15,WSW,238,0.0,0.0,78,0.00,,---,0.03,VWS V14.01,2013-04-07 15:00:00,
2013-04-07 08:05:00,36.8,30.3,31.15,SW,226,0.0,0.0,77,0.00,,---,0.03,VWS V14.01,2013-04-07 15:05:00,
2013-04-07 08:10:00,37.2,30.0,31.14,SW,236,0.0,0.0,75,0.00,,---,0.03,VWS V14.01,2013-04-07 15:10:00,
2013-04-07 08:15:00,37.2,29.7,31.14,WSW,246,0.0,0.0,74,0.00,,---,0.03,VWS V14.01,2013-04-07 15:15:00,
2013-04-07 08:20:00,37.5,30.0,31.14,SW,224,0.0,0.0,74,0.00,,---,0.03,VWS V14.01,2013-04-07 15:20:00,
2013-04-07 08:25:00,37.9,30.4,31.14,WSW,242,0.0,0.0,74,0.00,,---,0.03,VWS V14.01,2013-04-07 15:25:00,
2013-04-07 08:30:00,38.2,30.7,31.14,WSW,239,0.0,0.0,74,0.00,,---,0.03,VWS V14.01,2013-04-07 15:30:00,
2013-04-07 08:35:00,38.6,31.0,31.15,WSW,244,0.0,0.0,74,0.00,,---,0.03,VWS V14.01,2013-04-07 15:35:00,
2013-04-07 08:41:00,38.8,31.2,31.15,SW,234,0.0,0.0,74,0.00,,---,0.03,VWS V14.01,2013-04-07 15:41:00,
2013-04-07 08:46:00,39.2,32.0,31.15,SW,223,0.0,0.0,75,0.00,,---,0.03,VWS V14.01,2013-04-07 15:46:00,
2013-04-07 08:51:00,39.5,31.2,31.15,WSW,252,0.0,0.0,72,0.00,,---,0.03,VWS V14.01,2013-04-07 15:51:00,
2013-04-07 08:56:00,40.5,32.9,31.16,West,270,0.0,0.0,74,0.00,,---,0.03,VWS V14.01,2013-04-07 15:56:00,
2013-04-07 09:01:00,39.1,31.5,31.15,WSW,251,0.0,0.0,74,0.00,,---,0.03,VWS V14.01,2013-04-07 16:01:00,
2013-04-07 09:06:00,38.2,32.0,31.14,SW,224,0.0,0.0,78,0.00,,---,0.03,VWS V14.01,2013-04-07 16:06:00,
2013-04-07 09:11:00,37.8,31.2,31.14,SW,232,0.0,0.0,77,0.00,,---,0.03,VWS V14.01,2013-04-07 16:11:00,
2013-04-07 09:16:00,38.0,31.8,31.14,SW,236,0.0,0.0,78,0.00,,---,0.03,VWS V14.01,2013-04-07 16:16:00,
2013-04-07 09:22:00,37.9,32.0,31.14,WSW,240,0.0,0.0,79,0.00,,---,0.03,VWS V14.01,2013-04-07 16:22:00,
2013-04-07 09:27:00,38.2,31.6,31.14,WSW,239,0.0,0.0,77,0.00,,---,0.03,VWS V14.01,2013-04-07 16:27:00,
2013-04-07 09:32:00,39.1,32.2,31.14,SW,219,0.0,0.0,76,0.00,,---,0.03,VWS V14.01,2013-04-07 16:32:00,
2013-04-07 09:37:00,39.5,32.2,31.15,SW,234,0.0,0.0,75,0.00,,---,0.03,VWS V14.01,2013-04-07 16:37:00,
2013-04-07 09:42:00,39.5,30.9,31.15,West,277,0.0,0.0,71,0.00,,---,0.03,VWS V14.01,2013-04-07 16:42:00,
2013-04-07 09:47:00,38.9,28.9,31.14,WSW,246,0.0,0.0,67,0.00,,---,0.03,VWS V14.01,2013-04-07 16:47:00,
2013-04-07 09:52:00,38.9,28.1,31.14,WSW,250,0.0,0.0,65,0.00,,---,0.03,VWS V14.01,2013-04-07 16:52:00,
2013-04-07 09:57:00,39.2,27.7,31.14,WSW,248,0.0,0.0,63,0.00,,---,0.03,VWS V14.01,2013-04-07 16:57:00,
2013-04-07 10:02:00,39.9,29.1,31.15,SW,218,0.0,0.0,65,0.00,,---,0.03,VWS V14.01,2013-04-07 17:02:00,
2013-04-07 10:07:00,40.5,29.3,31.16,SW,225,0.0,0.0,64,0.00,,---,0.03,VWS V14.01,2013-04-07 17:07:00,
2013-04-07 10:13:00,40.6,29.8,31.15,SW,225,0.0,0.0,65,0.00,,---,0.03,VWS V14.01,2013-04-07 17:13:00,
2013-04-07 10:18:00,40.3,27.1,31.16,WSW,239,0.0,0.0,59,0.00,,---,0.03,VWS V14.01,2013-04-07 17:18:00,
2013-04-07 10:23:00,40.6,27.4,31.16,West,259,0.0,0.0,59,0.00,,---,0.03,VWS V14.01,2013-04-07 17:23:00,
2013-04-07 10:28:00,40.9,28.9,31.16,West,264,0.0,0.0,62,0.00,,---,0.03,VWS V14.01,2013-04-07 17:28:00,
2013-04-07 10:33:00,40.1,28.1,31.16,WSW,244,0.0,0.0,62,0.00,,---,0.03,VWS V14.01,2013-04-07 17:33:00,
2013-04-07 10:38:00,39.9,27.2,31.15,SW,229,0.0,0.0,60,0.00,,---,0.03,VWS V14.01,2013-04-07 17:38:00,
2013-04-07 10:43:00,40.8,29.2,31.16,SW,223,0.0,0.0,63,0.00,,---,0.03,VWS V14.01,2013-04-07 17:43:00,
2013-04-07 10:48:00,41.1,29.9,31.16,WSW,239,0.0,0.0,64,0.00,,---,0.03,VWS V14.01,2013-04-07 17:48:00,
2013-04-07 10:53:00,41.2,30.3,31.16,WSW,239,0.0,0.0,65,0.00,,---,0.03,VWS V14.01,2013-04-07 17:53:00,
2013-04-07 10:59:00,41.8,29.8,31.16,SW,218,0.0,0.0,62,0.00,,---,0.03,VWS V14.01,2013-04-07 17:59:00,
2013-04-07 11:04:00,42.6,32.0,31.17,WSW,246,0.0,0.0,66,0.00,,---,0.03,VWS V14.01,2013-04-07 18:04:00,
2013-04-07 11:09:00,41.2,26.7,31.16,SW,227,0.0,0.0,56,0.00,,---,0.03,VWS V14.01,2013-04-07 18:09:00,
2013-04-07 11:14:00,40.5,28.5,31.16,South,188,0.0,0.0,62,0.00,,---,0.03,VWS V14.01,2013-04-07 18:14:00,
2013-04-07 11:19:00,41.2,27.1,31.16,SSW,209,0.0,0.0,57,0.00,,---,0.03,VWS V14.01,2013-04-07 18:19:00,
2013-04-07 11:25:00,41.9,27.8,31.16,SW,233,0.0,0.0,57,0.00,,---,0.03,VWS V14.01,2013-04-07 18:25:00,
2013-04-07 11:30:00,42.6,28.0,31.17,WSW,244,0.0,0.0,56,0.00,,---,0.03,VWS V14.01,2013-04-07 18:30:00,
2013-04-07 11:35:00,41.6,27.5,31.16,West,259,0.0,0.0,57,0.00,,---,0.03,VWS V14.01,2013-04-07 18:35:00,
2013-04-07 11:40:00,40.8,27.2,31.16,SW,223,0.0,0.0,58,0.00,,---,0.03,VWS V14.01,2013-04-07 18:40:00,
2013-04-07 11:45:00,40.2,26.2,31.15,SW,216,0.0,0.0,57,0.00,,---,0.03,VWS V14.01,2013-04-07 18:45:00,
2013-04-07 11:50:00,39.6,26.5,31.15,WSW,257,0.0,0.0,59,0.00,,---,0.03,VWS V14.01,2013-04-07 18:50:00,
2013-04-07 11:55:00,38.8,28.1,31.15,West,261,0.0,0.0,65,0.00,,---,0.03,VWS V14.01,2013-04-07 18:55:00,
2013-04-07 12:01:00,38.0,26.9,31.15,WSW,247,0.0,0.0,64,0.00,,---,0.03,VWS V14.01,2013-04-07 19:01:00,
2013-04-07 12:06:00,38.9,29.6,31.14,SW,221,0.0,0.0,69,0.00,,---,0.03,VWS V14.01,2013-04-07 19:06:00,
2013-04-07 12:11:00,39.6,26.5,31.15,SW,231,0.0,0.0,59,0.00,,---,0.03,VWS V14.01,2013-04-07 19:11:00,
2013-04-07 12:17:00,39.6,27.7,31.15,SW,219,0.0,0.0,62,0.00,,---,0.03,VWS V14.01,2013-04-07 19:17:00,
2013-04-07 12:22:00,39.6,26.5,31.15,SSW,198,0.0,0.0,59,0.00,,---,0.03,VWS V14.01,2013-04-07 19:22:00,
2013-04-07 12:27:00,40.1,26.5,31.15,South,183,0.0,0.0,58,0.00,,---,0.03,VWS V14.01,2013-04-07 19:27:00,
2013-04-07 12:32:00,41.2,27.6,31.16,ENE,74,0.0,0.0,58,0.00,,---,0.03,VWS V14.01,2013-04-07 19:32:00,
2013-04-07 12:37:00,40.9,26.4,31.16,NE,48,0.0,0.0,56,0.00,,---,0.03,VWS V14.01,2013-04-07 19:37:00,
2013-04-07 12:42:00,41.2,27.1,31.16,SSE,162,0.0,0.0,57,0.00,,---,0.03,VWS V14.01,2013-04-07 19:42:00,
2013-04-07 12:47:00,41.3,25.9,31.16,WSW,248,0.0,0.0,54,0.00,,---,0.03,VWS V14.01,2013-04-07 19:47:00,
2013-04-07 12:52:00,40.6,25.7,31.16,ENE,61,0.0,0.0,55,0.00,,---,0.03,VWS V14.01,2013-04-07 19:52:00,
2013-04-07 12:57:00,40.9,26.0,31.16,SW,225,0.0,0.0,55,0.00,,---,0.03,VWS V14.01,2013-04-07 19:57:00,
2013-04-07 13:02:00,41.3,25.9,31.16,SW,229,0.0,0.0,54,0.00,,---,0.03,VWS V14.01,2013-04-07 20:02:00,
2013-04-07 13:07:00,39.3,27.4,31.15,South,169,0.0,0.0,62,0.00,,---,0.03,VWS V14.01,2013-04-07 20:07:00,
2013-04-07 13:13:00,39.2,27.3,31.15,SSW,192,0.0,0.0,62,0.00,,---,0.03,VWS V14.01,2013-04-07 20:13:00,
2013-04-07 13:18:00,39.2,26.9,31.15,WSW,242,0.0,0.0,61,0.00,,---,0.03,VWS V14.01,2013-04-07 20:18:00,
2013-04-07 13:23:00,39.3,27.8,31.15,WSW,240,0.0,0.0,63,0.00,,---,0.03,VWS V14.01,2013-04-07 20:23:00,
2013-04-07 13:28:00,41.8,31.3,31.16,SSW,198,0.0,0.0,66,0.00,,---,0.03,VWS V14.01,2013-04-07 20:28:00,
2013-04-07 13:33:00,42.5,25.2,31.17,SW,219,0.0,0.0,50,0.00,,---,0.03,VWS V14.01,2013-04-07 20:33:00,
2013-04-07 13:38:00,43.1,26.7,31.17,WNW,285,0.0,0.0,52,0.00,,---,0.03,VWS V14.01,2013-04-07 20:38:00,
2013-04-07 13:44:00,42.8,25.5,31.17,WNW,300,0.0,0.0,50,0.00,,---,0.03,VWS V14.01,2013-04-07 20:44:00,
2013-04-07 13:49:00,42.3,24.0,31.17,WSW,247,0.0,0.0,48,0.00,,---,0.03,VWS V14.01,2013-04-07 20:49:00,
2013-04-07 13:54:00,42.5,24.7,31.17,West,268,0.0,0.0,49,0.00,,---,0.03,VWS V14.01,2013-04-07 20:54:00,
2013-04-07 13:59:00,43.2,24.4,31.17,WSW,243,0.0,0.0,47,0.00,,---,0.03,VWS V14.01,2013-04-07 20:59:00,
2013-04-07 14:05:00,44.2,26.8,31.17,SW,228,0.0,0.0,50,0.00,,---,0.03,VWS V14.01,2013-04-07 21:05:00,
2013-04-07 14:10:00,43.2,24.9,31.17,WSW,244,0.0,0.0,48,0.00,,---,0.03,VWS V14.01,2013-04-07 21:10:00,
2013-04-07 14:15:00,43.2,22.8,31.17,SW,228,0.0,0.0,44,0.00,,---,0.03,VWS V14.01,2013-04-07 21:15:00,
2013-04-07 14:20:00,42.9,25.1,31.17,West,263,0.0,0.0,49,0.00,,---,0.03,VWS V14.01,2013-04-07 21:20:00,
2013-04-07 14:25:00,42.9,24.6,31.17,WSW,256,0.0,0.0,48,0.00,,---,0.03,VWS V14.01,2013-04-07 21:25:00,
2013-04-07 14:30:00,43.6,23.1,31.17,WSW,242,0.0,0.0,44,0.00,,---,0.03,VWS V14.01,2013-04-07 21:30:00,
2013-04-07 14:35:00,43.6,23.1,31.17,SW,227,0.0,0.0,44,0.00,,---,0.03,VWS V14.01,2013-04-07 21:35:00,
2013-04-07 14:40:00,43.9,25.0,31.17,WNW,289,0.0,0.0,47,0.00,,---,0.03,VWS V14.01,2013-04-07 21:40:00,
2013-04-07 14:46:00,44.2,24.2,31.17,WNW,292,0.0,0.0,45,0.00,,---,0.03,VWS V14.01,2013-04-07 21:46:00,
2013-04-07 14:51:00,44.1,24.7,20.81,SW,227,0.0,0.0,46,0.00,,---,0.03,VWS V14.01,2013-04-07 21:51:00,
2013-04-07 14:56:00,44.1,24.1,29.48,WSW,240,0.0,0.0,45,0.00,,---,0.03,VWS V14.01,2013-04-07 21:56:00,
2013-04-07 15:01:00,44.1,24.1,29.48,SW,224,0.0,0.0,45,0.00,,---,0.03,VWS V14.01,2013-04-07 22:01:00,
2013-04-07 15:07:00,45.1,25.0,27.81,West,270,0.0,0.0,45,0.00,,---,0.03,VWS V14.01,2013-04-07 22:07:00,
2013-04-07 15:12:00,44.9,23.2,27.81,WSW,253,0.0,0.0,42,0.00,,---,0.03,VWS V14.01,2013-04-07 22:12:00,
2013-04-07 15:17:00,44.2,24.8,27.81,SW,224,0.0,0.0,46,0.00,,---,0.03,VWS V14.01,2013-04-07 22:17:00,
2013-04-07 15:22:00,43.6,24.7,31.19,WSW,241,0.0,0.0,47,0.00,,---,0.03,VWS V14.01,2013-04-07 22:22:00,
2013-04-07 15:27:00,43.2,27.2,31.18,WSW,244,0.0,0.0,53,0.00,,---,0.03,VWS V14.01,2013-04-07 22:27:00,
2013-04-07 15:32:00,43.1,27.1,31.18,WSW,248,0.0,0.0,53,0.00,,---,0.03,VWS V14.01,2013-04-07 22:32:00,
2013-04-07 15:37:00,43.1,26.2,31.18,SSW,213,0.0,0.0,51,0.00,,---,0.03,VWS V14.01,2013-04-07 22:37:00,
2013-04-07 15:42:00,43.5,26.6,31.18,SW,218,0.0,0.0,51,0.00,,---,0.03,VWS V14.01,2013-04-07 22:42:00,
2013-04-07 15:47:00,43.5,24.6,31.18,South,188,0.0,0.0,47,0.00,,---,0.03,VWS V14.01,2013-04-07 22:47:00,
2013-04-07 15:52:00,42.9,24.1,31.18,SW,222,0.0,0.0,47,0.00,,---,0.03,VWS V14.01,2013-04-07 22:52:00,
2013-04-07 15:57:00,42.2,24.9,31.18,WSW,247,0.0,0.0,50,0.00,,---,0.03,VWS V14.01,2013-04-07 22:57:00,
2013-04-07 16:02:00,41.1,23.4,31.18,SW,223,0.0,0.0,49,0.00,,---,0.03,VWS V14.01,2013-04-07 23:02:00,
2013-04-07 16:08:00,40.6,23.9,31.18,SW,218,0.0,0.0,51,0.00,,---,0.03,VWS V14.01,2013-04-07 23:08:00,
2013-04-07 16:13:00,41.5,24.7,29.82,WNW,286,0.0,0.0,51,0.00,,---,0.03,VWS V14.01,2013-04-07 23:13:00,
2013-04-07 16:18:00,41.8,23.6,20.81,SW,229,0.0,0.0,48,0.00,,---,0.03,VWS V14.01,2013-04-07 23:18:00,
2013-04-07 16:23:00,40.9,23.2,20.81,WSW,245,0.0,0.0,49,0.00,,---,0.03,VWS V14.01,2013-04-07 23:23:00,
2013-04-07 16:28:00,41.2,23.5,20.81,WSW,246,0.0,0.0,49,0.00,,---,0.03,VWS V14.01,2013-04-07 23:28:00,
2013-04-07 16:33:00,40.8,24.1,20.81,SW,216,0.0,0.0,51,0.00,,---,0.03,VWS V14.01,2013-04-07 23:33:00,
2013-04-07 16:38:00,39.9,23.3,20.81,WSW,238,0.0,0.0,51,0.00,,---,0.03,VWS V14.01,2013-04-07 23:38:00,
2013-04-07 16:43:00,39.9,23.3,20.81,SW,230,0.0,0.0,51,0.00,,---,0.03,VWS V14.01,2013-04-07 23:43:00,
2013-04-07 16:48:00,40.6,24.8,20.81,West,261,0.0,0.0,53,0.00,,---,0.03,VWS V14.01,2013-04-07 23:48:00,
2013-04-07 16:53:00,41.6,26.2,20.81,West,265,0.0,0.0,54,0.00,,---,0.03,VWS V14.01,2013-04-07 23:53:00,
2013-04-07 16:58:00,41.3,22.1,20.81,South,185,0.0,0.0,46,0.00,,---,0.03,VWS V14.01,2013-04-07 23:58:00,
2013-04-07 17:03:00,41.1,22.4,28.47,WSW,248,0.0,0.0,47,0.00,,---,0.03,VWS V14.01,2013-04-08 00:03:00,
2013-04-07 17:09:00,39.6,23.4,28.47,WSW,244,0.0,0.0,52,0.00,,---,0.03,VWS V14.01,2013-04-08 00:09:00,
2013-04-07 17:14:00,40.2,23.5,28.47,WSW,243,0.0,0.0,51,0.00,,---,0.03,VWS V14.01,2013-04-08 00:14:00,
2013-04-07 17:19:00,40.1,22.5,29.80,West,263,0.0,0.0,49,0.00,,---,0.03,VWS V14.01,2013-04-08 00:19:00,
2013-04-07 17:24:00,39.6,22.0,29.80,WSW,246,0.0,0.0,49,0.00,,---,0.03,VWS V14.01,2013-04-08 00:24:00,
2013-04-07 17:29:00,39.8,22.7,29.80,WSW,248,0.0,0.0,50,0.00,,---,0.03,VWS V14.01,2013-04-08 00:29:00,
2013-04-07 17:34:00,39.8,22.7,29.80,SW,225,0.0,0.0,50,0.00,,---,0.03,VWS V14.01,2013-04-08 00:34:00,
2013-04-07 17:39:00,39.6,21.5,29.80,SW,217,0.0,0.0,48,0.00,,---,0.03,VWS V14.01,2013-04-08 00:39:00,
2013-04-07 17:44:00,39.9,23.3,29.80,West,263,0.0,0.0,51,0.00,,---,0.03,VWS V14.01,2013-04-08 00:44:00,
2013-04-07 17:50:00,39.6,22.5,29.80,West,274,0.0,0.0,50,0.00,,---,0.03,VWS V14.01,2013-04-08 00:50:00,
2013-04-07 17:55:00,39.5,22.4,29.80,SW,215,0.0,0.0,50,0.00,,---,0.03,VWS V14.01,2013-04-08 00:55:00,
2013-04-07 18:00:00,39.1,22.0,29.80,WSW,246,0.0,0.0,50,0.00,,---,0.03,VWS V14.01,2013-04-08 01:00:00,
2013-04-07 18:05:00,39.5,21.9,29.80,SSW,202,0.0,0.0,49,0.00,,---,0.03,VWS V14.01,2013-04-08 01:05:00,
2013-04-07 18:10:00,39.5,21.0,29.80,SW,225,0.0,0.0,47,0.00,,---,0.03,VWS V14.01,2013-04-08 01:10:00,
2013-04-07 18:15:00,39.1,22.0,29.80,SSW,196,0.0,0.0,50,0.00,,---,0.03,VWS V14.01,2013-04-08 01:15:00,
2013-04-07 18:20:00,38.8,23.1,31.13,SW,217,0.0,0.0,53,0.00,,---,0.03,VWS V14.01,2013-04-08 01:20:00,
2013-04-07 18:25:00,38.6,23.0,31.13,SSW,193,0.0,0.0,53,0.00,,---,0.03,VWS V14.01,2013-04-08 01:25:00,
2013-04-07 18:30:00,38.5,23.3,31.13,SSW,212,0.0,0.0,54,0.00,,---,0.03,VWS V14.01,2013-04-08 01:30:00,
2013-04-07 18:35:00,38.0,22.0,31.13,SW,223,0.0,0.0,52,0.00,,---,0.03,VWS V14.01,2013-04-08 01:35:00,
2013-04-07 18:41:00,37.9,23.2,31.13,SW,227,0.0,0.0,55,0.00,,---,0.03,VWS V14.01,2013-04-08 01:41:00,
2013-04-07 18:46:00,37.5,22.4,31.13,NE,43,0.0,0.0,54,0.00,,---,0.03,VWS V14.01,2013-04-08 01:46:00,
2013-04-07 18:52:00,37.2,23.0,29.44,NNE,30,0.0,0.0,56,0.00,,---,0.03,VWS V14.01,2013-04-08 01:52:00,
2013-04-07 18:57:00,36.9,23.9,29.44,NNE,13,0.0,0.0,59,0.00,,---,0.03,VWS V14.01,2013-04-08 01:57:00,
2013-04-07 19:02:00,36.3,24.1,31.12,North,355,0.0,0.0,61,0.00,,---,0.03,VWS V14.01,2013-04-08 02:02:00,
2013-04-07 19:07:00,35.6,25.0,31.12,NNE,17,0.0,0.0,65,0.00,,---,0.03,VWS V14.01,2013-04-08 02:07:00,
2013-04-07 19:12:00,35.2,25.0,31.12,NNE,19,0.0,0.0,66,0.00,,---,0.03,VWS V14.01,2013-04-08 02:12:00,
2013-04-07 19:17:00,34.9,24.3,31.12,NNW,339,0.0,0.0,65,0.00,,---,0.03,VWS V14.01,2013-04-08 02:17:00,
2013-04-07 19:22:00,35.0,24.4,20.83,NNW,327,0.0,0.0,65,0.00,,---,0.03,VWS V14.01,2013-04-08 02:22:00,
2013-04-07 19:28:00,34.7,23.8,31.12,NNW,348,0.0,0.0,64,0.00,,---,0.03,VWS V14.01,2013-04-08 02:28:00,
2013-04-07 19:33:00,34.4,22.4,31.12,North,11,0.0,0.0,61,0.00,,---,0.03,VWS V14.01,2013-04-08 02:33:00,
2013-04-07 19:38:00,34.1,22.5,31.11,NNE,17,0.0,0.0,62,0.00,,---,0.03,VWS V14.01,2013-04-08 02:38:00,
2013-04-07 19:44:00,33.8,22.5,31.11,North,360,0.0,0.0,63,0.00,,---,0.03,VWS V14.01,2013-04-08 02:44:00,
2013-04-07 19:49:00,33.7,22.8,31.11,North,355,0.0,0.0,64,0.00,,---,0.03,VWS V14.01,2013-04-08 02:49:00,
2013-04-07 19:54:00,33.4,22.9,31.11,North,355,0.0,0.0,65,0.00,,---,0.03,VWS V14.01,2013-04-08 02:54:00,
2013-04-07 20:00:00,33.2,22.7,31.11,North,355,0.0,0.0,65,0.00,,---,0.03,VWS V14.01,2013-04-08 03:00:00,
2013-04-07 20:05:00,33.1,22.6,31.11,NNW,341,0.0,0.0,65,0.00,,---,0.03,VWS V14.01,2013-04-08 03:05:00,
2013-04-07 20:10:00,33.1,23.0,31.11,NNW,329,0.0,0.0,66,0.00,,---,0.03,VWS V14.01,2013-04-08 03:10:00,
2013-04-07 20:15:00,32.9,22.8,31.11,NNW,342,0.0,0.0,66,0.00,,---,0.03,VWS V14.01,2013-04-08 03:15:00,
2013-04-07 20:20:00,32.9,23.2,31.11,North,5,0.0,0.0,67,0.00,,---,0.03,VWS V14.01,2013-04-08 03:20:00,
2013-04-07 20:25:00,32.5,23.1,31.11,NW,324,0.0,0.0,68,0.00,,---,0.03,VWS V14.01,2013-04-08 03:25:00,
2013-04-07 20:30:00,32.2,23.2,31.11,NW,317,0.0,0.0,69,0.00,,---,0.03,VWS V14.01,2013-04-08 03:30:00,
2013-04-07 20:35:00,32.1,23.4,31.11,NW,309,0.0,0.0,70,0.00,,---,0.03,VWS V14.01,2013-04-08 03:35:00,
2013-04-07 20:40:00,32.1,23.8,31.11,NW,326,0.0,0.0,71,0.00,,---,0.03,VWS V14.01,2013-04-08 03:40:00,
2013-04-07 20:47:00,31.9,23.9,31.11,NW,322,0.0,0.0,72,0.00,,---,0.03,VWS V14.01,2013-04-08 03:47:00,
2013-04-07 20:52:00,31.8,24.5,31.11,NW,315,0.0,0.0,74,0.00,,---,0.03,VWS V14.01,2013-04-08 03:52:00,
2013-04-07 20:58:00,31.6,24.3,31.11,NW,323,0.0,0.0,74,0.00,,---,0.03,VWS V14.01,2013-04-08 03:58:00,
2013-04-07 21:00:00,31.5,24.2,31.11,NW,317,0.0,0.0,74,0.00,,---,0.03,VWS V14.01,2013-04-08 04:00:00,
2013-04-07 21:02:00,31.5,24.5,31.11,NW,317,0.0,0.0,75,0.00,,---,0.03,VWS V14.01,2013-04-08 04:02:00,
2013-04-07 21:06:00,31.5,24.5,31.11,NW,314,0.0,0.0,75,0.00,,---,0.03,VWS V14.01,2013-04-08 04:06:00,
2013-04-07 21:11:00,31.5,24.8,31.13,NW,316,0.0,0.0,76,0.00,,---,0.03,VWS V14.01,2013-04-08 04:11:00,
2013-04-07 21:16:00,31.5,24.5,31.12,WNW,284,0.0,0.0,75,0.00,,---,0.03,VWS V14.01,2013-04-08 04:16:00,
2013-04-07 21:21:00,31.5,23.9,31.12,West,278,0.0,0.0,73,0.00,,---,0.03,VWS V14.01,2013-04-08 04:21:00,
2013-04-07 21:26:00,31.5,23.5,31.12,WNW,294,0.0,0.0,72,0.00,,---,0.03,VWS V14.01,2013-04-08 04:26:00,
2013-04-07 21:31:00,31.3,23.3,31.12,WNW,297,0.0,0.0,72,0.00,,---,0.03,VWS V14.01,2013-04-08 04:31:00,
2013-04-07 21:36:00,31.2,23.2,31.12,WNW,298,0.0,0.0,72,0.00,,---,0.03,VWS V14.01,2013-04-08 04:36:00,
2013-04-07 21:42:00,31.2,22.9,31.12,WNW,287,0.0,0.0,71,0.00,,---,0.03,VWS V14.01,2013-04-08 04:42:00,
2013-04-07 21:47:00,31.2,22.9,31.12,WNW,297,0.0,0.0,71,0.00,,---,0.03,VWS V14.01,2013-04-08 04:47:00,
2013-04-07 21:52:00,31.0,22.7,31.12,NW,309,0.0,0.0,71,0.00,,---,0.03,VWS V14.01,2013-04-08 04:52:00,
2013-04-07 21:57:00,31.0,22.4,31.12,WNW,297,0.0,0.0,70,0.00,,---,0.03,VWS V14.01,2013-04-08 04:57:00,
2013-04-07 22:02:00,31.0,22.7,31.12,West,279,0.0,0.0,71,0.00,,---,0.03,VWS V14.01,2013-04-08 05:02:00,
2013-04-07 22:07:00,31.0,22.7,31.13,West,273,0.0,0.0,71,0.00,,---,0.03,VWS V14.01,2013-04-08 05:07:00,
2013-04-07 22:12:00,30.9,22.6,31.13,West,271,0.0,0.0,71,0.00,,---,0.03,VWS V14.01,2013-04-08 05:12:00,
2013-04-07 22:17:00,31.0,22.4,31.13,West,276,0.0,0.0,70,0.00,,---,0.03,VWS V14.01,2013-04-08 05:17:00,
2013-04-07 22:22:00,31.0,21.7,31.13,West,276,0.0,0.0,68,0.00,,---,0.03,VWS V14.01,2013-04-08 05:22:00,
2013-04-07 22:27:00,30.9,22.3,31.13,WSW,240,0.0,0.0,70,0.00,,---,0.03,VWS V14.01,2013-04-08 05:27:00,
2013-04-07 22:33:00,30.7,21.8,31.13,WSW,246,0.0,0.0,69,0.00,,---,0.03,VWS V14.01,2013-04-08 05:33:00,
2013-04-07 22:38:00,31.2,21.5,31.13,West,274,0.0,0.0,67,0.00,,---,0.03,VWS V14.01,2013-04-08 05:38:00,
2013-04-07 22:43:00,31.5,20.4,31.13,NW,321,0.0,0.0,63,0.00,,---,0.03,VWS V14.01,2013-04-08 05:43:00,
2013-04-07 22:48:00,31.6,20.1,31.13,NW,325,0.0,0.0,62,0.00,,---,0.03,VWS V14.01,2013-04-08 05:48:00,
2013-04-07 22:53:00,31.6,20.1,31.13,NW,315,0.0,0.0,62,0.00,,---,0.03,VWS V14.01,2013-04-08 05:53:00,
2013-04-07 22:58:00,31.5,20.4,31.13,NW,317,0.0,0.0,63,0.00,,---,0.03,VWS V14.01,2013-04-08 05:58:00,
2013-04-07 23:03:00,31.3,20.5,31.13,North,350,0.0,0.0,64,0.00,,---,0.03,VWS V14.01,2013-04-08 06:03:00,
2013-04-07 23:08:00,31.0,21.0,31.10,NNW,344,0.0,0.0,66,0.00,,---,0.03,VWS V14.01,2013-04-08 06:08:00,
2013-04-07 23:13:00,30.9,21.6,31.10,NW,324,0.0,0.0,68,0.00,,---,0.03,VWS V14.01,2013-04-08 06:13:00,
2013-04-07 23:18:00,30.6,21.6,31.10,NNW,341,0.0,0.0,69,0.00,,---,0.03,VWS V14.01,2013-04-08 06:18:00,
2013-04-07 23:23:00,30.3,21.7,31.10,North,355,0.0,0.0,70,0.00,,---,0.03,VWS V14.01,2013-04-08 06:23:00,
2013-04-07 23:28:00,30.1,21.9,31.10,WNW,302,0.0,0.0,71,0.00,,---,0.03,VWS V14.01,2013-04-08 06:28:00,
2013-04-07 23:33:00,30.1,22.2,31.10,NW,317,0.0,0.0,72,0.00,,---,0.03,VWS V14.01,2013-04-08 06:33:00,
2013-04-07 23:39:00,30.0,22.4,31.10,NW,308,0.0,0.0,73,0.00,,---,0.03,VWS V14.01,2013-04-08 06:39:00,
2013-04-07 23:44:00,29.8,22.2,31.10,North,355,0.0,0.0,73,0.00,,---,0.03,VWS V14.01,2013-04-08 06:44:00,
2013-04-07 23:49:00,29.5,22.2,31.10,North,355,0.0,0.0,74,0.00,,---,0.03,VWS V14.01,2013-04-08 06:49:00,
2013-04-07 23:54:00,29.4,22.5,31.09,NNW,333,0.0,0.0,75,0.00,,---,0.03,VWS V14.01,2013-04-08 06:54:00,
2013-04-07 23:59:00,29.4,22.8,31.09,NNW,336,0.0,0.0,76,0.00,,---,0.03,VWS V14.01,2013-04-08 06:59:00,